Bothwell, Utah
Current Conditions -  °F | °C
As of 4:55 AM on Thursday 29 Jan 2015 (Local Time) from KBMC Reporting Station
Clear Clear  
Wind Chill: 30°   Ceiling: Unl
Heat Index: 30°   Visibility: 4mi
Dew Point: 28°   Wind: 3mph
Humidity: 94%   Direction: 240°WSW
Pressure: 30.38"   Gusts: NA
Location:  41.6836°N, 112.26°W
Report Text: KBMC 291155Z AUTO 24003KT 4SM CLR M01/M02 A3038 RMK AO1 T10121021 10107 21077
Loading
Personal Weather Stations






























Interactive Weather Map New forecast layout! Learn more

10-Day Weather Forecast

Advertisements
Track Severe Weather on mobile